createdAt,value
2019-03-31T00:01:32.694Z,78.50
2019-03-31T00:04:16.599Z,95.83
2019-03-31T00:06:51.086Z,118.05
2019-03-31T00:09:28.975Z,105.83
2019-03-31T00:12:06.378Z,89.28
2019-03-31T00:14:49.572Z,76.97
2019-03-31T00:20:15.443Z,76.72
2019-03-31T00:22:54.657Z,69.82
2019-03-31T00:25:30.098Z,81.87
2019-03-31T00:28:07.333Z,76.97
2019-03-31T00:30:44.400Z,90.83
2019-03-31T00:33:23.989Z,80.35
2019-03-31T00:36:03.896Z,85.30
2019-03-31T00:38:41.279Z,81.90
2019-03-31T00:41:19.595Z,96.97
2019-03-31T00:43:56.696Z,78.60
2019-03-31T00:46:44.511Z,81.42
2019-03-31T00:49:21.089Z,76.28
2019-03-31T00:54:58.205Z,86.12
2019-03-31T00:57:36.314Z,79.87
2019-03-31T01:00:15.210Z,77.22
2019-03-31T01:02:52.844Z,76.35
2019-03-31T01:05:31.308Z,78.00
2019-03-31T01:13:59.323Z,76.97
2019-03-31T01:16:40.396Z,84.92
2019-03-31T01:27:49.258Z,107.55
2019-03-31T01:30:40.260Z,116.67
2019-03-31T01:33:23.436Z,119.05
2019-03-31T01:36:06.364Z,115.72
2019-03-31T01:38:51.756Z,107.50
2019-03-31T01:41:37.201Z,96.78
2019-03-31T01:47:09.775Z,104.83
2019-03-31T01:49:45.733Z,90.38
2019-03-31T01:58:16.558Z,91.00
2019-03-31T02:00:51.448Z,97.45
2019-03-31T02:03:26.186Z,81.67
2019-03-31T02:09:01.860Z,80.95
2019-03-31T02:14:44.026Z,73.47
2019-03-31T02:17:20.274Z,71.90
2019-03-31T02:20:22.293Z,77.03
2019-03-31T02:25:52.716Z,79.45
2019-03-31T02:28:28.948Z,77.67
2019-03-31T02:31:04.308Z,76.65
2019-03-31T02:33:50.844Z,64.42
2019-03-31T02:42:20.746Z,49.25
2019-03-31T02:44:56.129Z,48.48
2019-03-31T02:47:30.499Z,49.25
2019-03-31T02:50:16.819Z,52.10
2019-03-31T02:52:54.831Z,48.05
2019-03-31T02:55:36.455Z,54.35
2019-03-31T02:58:13.738Z,51.20
2019-03-31T03:00:51.711Z,49.48
2019-03-31T03:15:09.314Z,44.18
2019-03-31T03:17:54.136Z,45.45
2019-03-31T03:20:34.147Z,48.53
2019-03-31T03:29:22.837Z,46.58
2019-03-31T03:35:01.036Z,52.62
2019-03-31T03:40:34.038Z,59.93
2019-03-31T03:43:07.370Z,64.77
2019-03-31T03:45:49.640Z,69.60
2019-03-31T03:48:25.508Z,66.77
2019-03-31T03:51:02.090Z,73.30
2019-03-31T03:53:54.986Z,66.53
2019-03-31T03:56:36.616Z,65.90
2019-03-31T03:59:14.290Z,64.45
2019-03-31T04:07:40.533Z,67.00
2019-03-31T04:10:48.981Z,74.35
2019-03-31T04:16:27.708Z,75.03
2019-03-31T04:21:58.297Z,73.90
2019-03-31T04:27:31.324Z,74.72
2019-03-31T04:30:07.788Z,75.45
2019-03-31T04:32:50.079Z,79.53
2019-03-31T04:38:38.573Z,80.50
2019-03-31T04:41:23.255Z,83.27
2019-03-31T04:43:58.318Z,80.62
2019-03-31T04:46:46.543Z,84.72
2019-03-31T04:49:29.286Z,83.30
2019-03-31T04:52:22.867Z,78.95
2019-03-31T04:58:07.321Z,81.87
2019-03-31T05:03:46.759Z,77.20
2019-03-31T05:06:41.229Z,72.15
2019-03-31T05:09:48.077Z,76.77
2019-03-31T05:12:16.874Z,80.53
2019-03-31T05:15:00.739Z,76.92
2019-03-31T05:17:54.536Z,74.90
2019-03-31T05:20:38.970Z,70.60
2019-03-31T05:23:14.651Z,75.35
2019-03-31T05:32:01.700Z,75.72
2019-03-31T05:34:39.555Z,79.82
2019-03-31T05:37:32.876Z,81.30
2019-03-31T05:46:22.645Z,78.25
2019-03-31T05:52:03.410Z,80.40
2019-03-31T05:54:40.350Z,80.07
2019-03-31T05:57:20.590Z,78.67
2019-03-31T06:03:00.744Z,73.97
2019-03-31T06:11:37.690Z,82.82
2019-03-31T06:26:08.260Z,69.77
2019-03-31T06:28:45.368Z,81.60
2019-03-31T06:34:19.710Z,71.50
2019-03-31T06:36:57.415Z,65.00
2019-03-31T06:45:30.831Z,73.50
2019-03-31T06:48:16.928Z,71.65
2019-03-31T06:53:54.960Z,69.30
2019-03-31T07:05:25.620Z,75.25
2019-03-31T07:16:57.982Z,75.15
2019-03-31T07:19:41.255Z,72.17
2019-03-31T07:22:28.994Z,83.07
2019-03-31T07:25:10.507Z,76.57
2019-03-31T07:32:23.220Z,81.47
2019-03-31T07:45:58.648Z,78.52
2019-03-31T07:48:41.914Z,79.90
2019-03-31T07:51:20.390Z,81.75
2019-03-31T07:54:00.433Z,73.17
2019-03-31T07:56:40.636Z,91.78
2019-03-31T08:02:22.809Z,86.85
2019-03-31T08:05:10.222Z,78.97
2019-03-31T08:08:31.858Z,82.17
2019-03-31T08:10:51.243Z,75.47
2019-03-31T08:13:42.195Z,81.67
2019-03-31T08:16:25.926Z,82.67
2019-03-31T08:19:00.685Z,89.28
2019-03-31T08:21:40.881Z,72.65
2019-03-31T08:24:34.529Z,82.60
2019-03-31T08:32:59.464Z,87.37
2019-03-31T08:35:47.179Z,77.03
2019-03-31T08:41:18.444Z,84.00
2019-03-31T08:46:52.915Z,74.42
2019-03-31T08:58:21.316Z,75.10
2019-03-31T09:01:16.274Z,69.30
2019-03-31T09:03:46.615Z,73.37
2019-03-31T09:15:07.911Z,69.37
2019-03-31T09:23:31.274Z,71.82
2019-03-31T09:32:14.436Z,74.10
2019-03-31T09:35:06.155Z,75.32
2019-03-31T09:37:44.918Z,79.92
2019-03-31T09:40:34.863Z,72.05
2019-03-31T09:43:12.431Z,70.62
2019-03-31T09:46:08.617Z,71.07
2019-03-31T09:51:44.553Z,71.35
2019-03-31T09:57:21.530Z,72.62
2019-03-31T10:05:52.985Z,71.77
2019-03-31T10:08:31.833Z,74.47
2019-03-31T10:14:12.177Z,68.12
2019-03-31T10:16:52.495Z,64.62
2019-03-31T10:22:27.857Z,79.42
2019-03-31T10:25:13.198Z,76.15
2019-03-31T10:28:00.985Z,69.50
2019-03-31T10:30:59.092Z,82.17
2019-03-31T10:36:52.663Z,67.67
2019-03-31T10:39:30.502Z,85.90
2019-03-31T10:42:17.938Z,74.50
2019-03-31T10:44:54.687Z,73.70
2019-03-31T10:47:35.315Z,72.67
2019-03-31T10:50:20.130Z,76.53
2019-03-31T10:52:57.402Z,79.30
2019-03-31T10:55:38.918Z,78.90
2019-03-31T10:58:18.903Z,83.15
2019-03-31T11:01:07.521Z,76.67
2019-03-31T11:03:50.490Z,66.50
2019-03-31T11:06:36.053Z,77.92
2019-03-31T11:09:34.675Z,68.47
2019-03-31T11:12:12.822Z,72.27
2019-03-31T11:17:49.547Z,72.78
2019-03-31T11:23:30.237Z,71.70
2019-03-31T11:26:07.614Z,81.87
2019-03-31T11:29:51.113Z,79.25
2019-03-31T11:40:37.721Z,77.40
2019-03-31T11:43:16.608Z,69.60
2019-03-31T11:46:08.935Z,79.85
2019-03-31T11:48:46.732Z,79.35
2019-03-31T12:06:11.285Z,68.05
2019-03-31T12:17:50.129Z,80.03
2019-03-31T12:26:18.328Z,76.95
2019-03-31T12:34:56.093Z,162.77
2019-03-31T12:38:00.090Z,207.45
2019-03-31T12:46:56.500Z,107.65
2019-03-31T13:21:41.382Z,145.15
2019-03-31T13:36:33.595Z,66.53
2019-03-31T13:39:21.118Z,62.85
2019-03-31T13:45:15.534Z,73.28
2019-03-31T14:12:01.531Z,58.68
2019-03-31T14:14:36.961Z,63.05
2019-03-31T14:23:18.719Z,58.00
2019-03-31T14:25:59.814Z,43.73
2019-03-31T14:34:44.766Z,42.95
2019-03-31T14:40:32.622Z,39.53
2019-03-31T14:49:26.138Z,41.55
2019-03-31T15:07:13.014Z,39.18
2019-03-31T15:09:46.031Z,38.05
2019-03-31T15:15:46.565Z,36.20
2019-03-31T15:21:43.743Z,41.80
2019-03-31T15:24:27.429Z,40.75
2019-03-31T15:36:14.315Z,36.15
2019-03-31T15:39:08.067Z,36.20
2019-03-31T15:44:43.975Z,37.80
2019-03-31T15:50:35.417Z,33.45
2019-03-31T15:53:11.834Z,30.50
2019-03-31T15:56:14.524Z,32.35
2019-03-31T16:02:05.728Z,53.80
2019-03-31T16:10:43.021Z,27.35
2019-03-31T16:13:25.673Z,40.45
2019-03-31T16:22:01.559Z,24.67
2019-03-31T16:24:47.147Z,134.55
2019-03-31T16:27:27.542Z,236.57
2019-03-31T16:33:23.351Z,99.42
2019-03-31T16:36:16.527Z,60.73
2019-03-31T16:41:56.815Z,27.58
2019-03-31T16:44:39.555Z,75.42
2019-03-31T16:47:19.676Z,46.18
2019-03-31T16:50:14.777Z,105.80
2019-03-31T16:53:05.155Z,92.15
2019-03-31T16:58:40.650Z,42.98
2019-03-31T17:04:18.811Z,28.42
2019-03-31T17:06:56.892Z,29.00
2019-03-31T17:12:37.415Z,23.70
2019-03-31T17:15:21.509Z,22.15
2019-03-31T17:18:10.640Z,59.00
2019-03-31T17:20:42.593Z,45.43
2019-03-31T17:23:29.985Z,58.83
2019-03-31T17:26:06.476Z,30.72
2019-03-31T17:28:49.365Z,27.77
2019-03-31T17:31:26.097Z,22.17
2019-03-31T17:34:03.293Z,20.17
2019-03-31T17:36:42.453Z,34.70
2019-03-31T17:39:26.647Z,28.17
2019-03-31T17:42:15.287Z,23.02
2019-03-31T17:44:50.662Z,17.73
2019-03-31T17:47:29.225Z,18.98
2019-03-31T17:50:07.577Z,17.30
2019-03-31T17:55:51.899Z,14.35
2019-03-31T17:58:29.054Z,12.58
2019-03-31T18:01:05.689Z,12.50
2019-03-31T18:03:41.481Z,15.85
2019-03-31T18:06:18.395Z,13.58
2019-03-31T18:08:54.034Z,14.23
2019-03-31T18:11:31.164Z,10.72
2019-03-31T18:14:22.044Z,15.25
2019-03-31T18:19:25.258Z,12.60
2019-03-31T18:22:15.852Z,15.55
2019-03-31T18:24:43.552Z,13.60
2019-03-31T18:27:24.167Z,16.05
2019-03-31T18:30:04.783Z,13.22
2019-03-31T18:32:39.095Z,12.30
2019-03-31T18:35:19.454Z,12.35
2019-03-31T18:38:06.922Z,11.60
2019-03-31T18:40:40.798Z,14.15
2019-03-31T18:43:17.892Z,10.15
2019-03-31T18:45:52.919Z,11.97
2019-03-31T18:48:27.915Z,9.15
2019-03-31T18:51:06.117Z,10.48
2019-03-31T18:53:48.622Z,12.15
2019-03-31T18:56:39.569Z,9.48
2019-03-31T18:59:18.624Z,7.50
2019-03-31T19:02:13.211Z,9.83
2019-03-31T19:04:59.588Z,11.95
2019-03-31T19:07:45.624Z,8.20
2019-03-31T19:10:48.433Z,11.25
2019-03-31T19:13:18.177Z,10.65
2019-03-31T19:15:56.506Z,10.08
2019-03-31T19:18:34.610Z,15.30
2019-03-31T19:21:20.284Z,13.68
2019-03-31T19:24:05.858Z,13.08
2019-03-31T19:26:48.636Z,8.85
2019-03-31T19:29:37.397Z,9.25
2019-03-31T19:32:15.789Z,11.53
2019-03-31T19:34:59.668Z,11.43
2019-03-31T19:37:52.712Z,10.78
2019-03-31T19:40:30.766Z,11.78
2019-03-31T19:43:07.164Z,9.83
2019-03-31T19:45:42.417Z,9.28
2019-03-31T19:48:35.396Z,9.83
2019-03-31T19:51:25.981Z,8.23
2019-03-31T19:54:17.128Z,10.82
2019-03-31T19:56:56.475Z,10.70
2019-03-31T19:59:37.905Z,11.88
2019-03-31T20:02:13.540Z,6.78
2019-03-31T20:05:04.871Z,8.43
2019-03-31T20:07:58.014Z,9.70
2019-03-31T20:10:42.074Z,9.50
2019-03-31T20:13:30.377Z,10.70
2019-03-31T20:16:08.903Z,10.10
2019-03-31T20:18:42.520Z,11.18
2019-03-31T20:21:31.403Z,9.85
2019-03-31T20:24:17.735Z,11.25
2019-03-31T20:27:06.491Z,12.95
2019-03-31T20:29:53.299Z,9.28
2019-03-31T20:32:31.057Z,10.43
2019-03-31T20:35:09.463Z,7.25
2019-03-31T20:37:53.525Z,7.92
2019-03-31T20:40:31.530Z,7.90
2019-03-31T20:43:18.479Z,9.20
2019-03-31T20:45:54.007Z,12.50
2019-03-31T20:48:28.146Z,10.25
2019-03-31T20:51:05.083Z,10.80
2019-03-31T20:53:42.458Z,12.30
2019-03-31T20:56:16.855Z,10.20
2019-03-31T20:58:54.147Z,10.10
2019-03-31T21:01:28.539Z,11.00
2019-03-31T21:04:02.979Z,9.53
2019-03-31T21:06:37.373Z,8.95
2019-03-31T21:09:11.850Z,9.60
2019-03-31T21:11:46.097Z,9.75
2019-03-31T21:14:23.412Z,9.65
2019-03-31T21:16:57.693Z,8.95
2019-03-31T21:19:31.743Z,11.05
2019-03-31T21:22:08.643Z,12.10
2019-03-31T21:24:44.127Z,10.40
2019-03-31T21:27:18.978Z,9.13
2019-03-31T21:29:55.160Z,9.58
2019-03-31T21:32:30.354Z,17.35
2019-03-31T21:35:05.416Z,11.53
2019-03-31T21:37:42.089Z,12.20
2019-03-31T21:40:16.088Z,11.73
2019-03-31T21:42:53.111Z,14.00
2019-03-31T21:45:27.592Z,19.23
2019-03-31T21:48:04.440Z,20.37
2019-03-31T21:50:38.386Z,19.85
2019-03-31T21:53:19.652Z,20.00
2019-03-31T21:55:57.833Z,14.63
2019-03-31T21:58:30.078Z,12.45
2019-03-31T22:01:09.846Z,11.05
2019-03-31T22:03:43.887Z,14.55
2019-03-31T22:06:23.535Z,13.72
2019-03-31T22:09:03.447Z,11.88
2019-03-31T22:11:57.916Z,12.47
2019-03-31T22:14:35.372Z,11.68
2019-03-31T22:17:10.411Z,12.45
2019-03-31T22:19:46.729Z,13.38
2019-03-31T22:22:22.747Z,15.10
2019-03-31T22:25:00.004Z,12.30
2019-03-31T22:27:37.034Z,12.50
2019-03-31T22:30:17.355Z,14.53
2019-03-31T22:32:51.502Z,17.85
2019-03-31T22:35:28.696Z,15.75
2019-03-31T22:38:07.951Z,13.65
2019-03-31T22:43:39.761Z,13.75
2019-03-31T22:46:14.465Z,13.28
2019-03-31T22:49:05.997Z,17.73
2019-03-31T22:51:40.526Z,16.50
2019-03-31T22:54:16.207Z,16.93
2019-03-31T22:56:49.861Z,16.42
2019-03-31T22:59:27.925Z,15.55
2019-03-31T23:05:03.064Z,13.60
2019-03-31T23:07:37.503Z,12.43
2019-03-31T23:10:15.951Z,15.38
2019-03-31T23:12:58.873Z,19.32
2019-03-31T23:15:38.205Z,21.80
2019-03-31T23:18:12.591Z,16.23
2019-03-31T23:20:49.744Z,12.85
2019-03-31T23:23:24.212Z,18.55
2019-03-31T23:26:02.771Z,16.62
2019-03-31T23:28:43.553Z,12.05
2019-03-31T23:31:17.830Z,15.60
2019-03-31T23:33:55.844Z,11.75
2019-03-31T23:36:49.354Z,15.15
2019-03-31T23:39:26.453Z,19.82
2019-03-31T23:42:21.700Z,23.12
2019-03-31T23:44:59.991Z,14.40
2019-03-31T23:47:40.581Z,15.43
2019-03-31T23:50:23.603Z,13.10
2019-03-31T23:53:04.864Z,15.65
